createdAt,value
2023-10-13T03:53:14.418Z,14.61
2023-10-13T03:56:30.968Z,14.62
2023-10-13T03:59:37.185Z,14.59
2023-10-13T04:02:47.074Z,14.63
2023-10-13T04:06:07.274Z,14.64
2023-10-13T04:09:28.688Z,14.62
2023-10-13T04:12:50.266Z,14.63
2023-10-13T04:16:11.601Z,14.68
2023-10-13T04:19:22.120Z,14.71
2023-10-13T04:22:44.844Z,14.71
2023-10-13T04:25:47.815Z,14.73
2023-10-13T04:28:54.435Z,14.82
2023-10-13T04:32:01.868Z,14.91
2023-10-13T04:35:19.535Z,14.93
2023-10-13T04:38:34.058Z,14.91
2023-10-13T04:41:58.116Z,14.86
2023-10-13T04:45:17.466Z,14.90
2023-10-13T04:48:23.038Z,14.88
2023-10-13T04:51:44.523Z,14.76
2023-10-13T04:54:49.905Z,14.77
2023-10-13T04:58:01.623Z,14.88
2023-10-13T05:01:23.868Z,14.89
2023-10-13T05:04:45.598Z,14.95
2023-10-13T05:08:07.295Z,14.94
2023-10-13T05:11:28.872Z,14.95
2023-10-13T05:14:50.370Z,15.03
2023-10-13T05:18:12.237Z,15.08
2023-10-13T05:21:33.872Z,15.09
2023-10-13T05:24:56.257Z,15.12
2023-10-13T05:28:30.353Z,15.12
2023-10-13T05:31:56.946Z,15.16
2023-10-13T05:35:18.464Z,15.36
2023-10-13T05:38:40.198Z,15.39
2023-10-13T05:42:01.476Z,15.44
2023-10-13T05:45:19.712Z,15.51
2023-10-13T05:48:35.896Z,15.53
2023-10-13T05:51:39.443Z,15.54
2023-10-13T05:55:00.828Z,15.61
2023-10-13T05:58:22.684Z,15.65
2023-10-13T06:01:43.884Z,15.65
2023-10-13T06:05:05.553Z,15.73
2023-10-13T06:08:27.298Z,15.76
2023-10-13T06:11:48.877Z,15.71
2023-10-13T06:15:10.408Z,15.79
2023-10-13T06:18:31.913Z,15.84
2023-10-13T06:21:53.385Z,15.89
2023-10-13T06:25:15.052Z,15.93
2023-10-13T06:28:36.467Z,16.09
2023-10-13T06:31:47.243Z,16.13
2023-10-13T06:34:52.281Z,16.20
2023-10-13T06:38:01.171Z,16.19
2023-10-13T06:41:08.668Z,16.20
2023-10-13T06:44:16.635Z,16.17
2023-10-13T06:47:21.577Z,16.10
2023-10-13T06:50:26.006Z,16.09
2023-10-13T06:53:31.005Z,16.12
2023-10-13T06:56:40.787Z,16.16
2023-10-13T06:59:44.047Z,16.12
2023-10-13T07:02:54.189Z,16.09
2023-10-13T07:06:00.388Z,16.08
2023-10-13T07:09:06.129Z,16.18
2023-10-13T07:12:18.133Z,16.21
2023-10-13T07:15:21.405Z,16.23
2023-10-13T07:18:24.559Z,16.22
2023-10-13T07:21:33.803Z,16.19
2023-10-13T07:24:41.194Z,16.21
2023-10-13T07:27:44.457Z,16.15
2023-10-13T07:30:56.143Z,16.22
2023-10-13T07:34:13.827Z,16.27
2023-10-13T07:37:17.443Z,16.31
2023-10-13T07:40:26.733Z,16.44
2023-10-13T07:43:29.465Z,16.61
2023-10-13T07:46:36.503Z,16.74
2023-10-13T07:49:40.785Z,16.92
2023-10-13T07:53:02.128Z,16.95
2023-10-13T07:56:06.756Z,17.04
2023-10-13T07:59:11.179Z,17.02
2023-10-13T08:02:16.942Z,17.02
2023-10-13T08:05:40.615Z,17.09
2023-10-13T08:08:45.185Z,17.21
2023-10-13T08:11:48.101Z,17.29
2023-10-13T08:14:50.952Z,17.32
2023-10-13T08:17:54.257Z,17.39
2023-10-13T08:21:04.149Z,17.45
2023-10-13T08:24:08.908Z,17.59
2023-10-13T08:27:30.162Z,17.65
2023-10-13T08:30:43.404Z,17.75
2023-10-13T08:33:47.903Z,17.97
2023-10-13T08:36:51.222Z,18.13
2023-10-13T08:40:24.241Z,18.01
2023-10-13T08:43:43.598Z,17.80
2023-10-13T08:47:05.399Z,18.25
2023-10-13T08:50:32.055Z,18.52
2023-10-13T08:53:34.962Z,18.49
2023-10-13T08:56:48.216Z,18.42
2023-10-13T08:59:54.497Z,18.58
2023-10-13T09:03:00.830Z,18.61
2023-10-13T09:06:04.415Z,18.79
2023-10-13T09:09:21.523Z,18.89
2023-10-13T09:12:34.349Z,19.00
2023-10-13T09:15:56.005Z,19.25
2023-10-13T09:19:05.836Z,19.35
2023-10-13T09:22:09.027Z,19.83
2023-10-13T09:25:15.057Z,20.15
2023-10-13T09:28:22.975Z,20.38
2023-10-13T09:31:28.680Z,20.61
2023-10-13T09:34:41.906Z,20.98
2023-10-13T09:37:47.499Z,21.01
2023-10-13T09:40:51.533Z,21.03
2023-10-13T09:43:59.242Z,21.18
2023-10-13T09:47:10.440Z,21.34
2023-10-13T09:50:25.201Z,21.40
2023-10-13T09:53:30.470Z,21.29
2023-10-13T09:57:02.561Z,21.30
2023-10-13T10:00:47.465Z,21.50
2023-10-13T10:04:12.481Z,21.87
2023-10-13T10:07:25.963Z,22.21
2023-10-13T10:10:56.806Z,22.15
2023-10-13T10:14:02.853Z,22.38
2023-10-13T10:17:10.893Z,22.95
2023-10-13T10:20:21.287Z,22.75
2023-10-13T10:23:37.492Z,22.58
2023-10-13T10:26:52.956Z,22.82
2023-10-13T10:29:57.722Z,22.40
2023-10-13T10:33:02.281Z,22.64
2023-10-13T10:36:06.906Z,22.72
2023-10-13T10:39:12.746Z,23.04
2023-10-13T10:42:30.245Z,23.25
2023-10-13T10:45:36.100Z,23.59
2023-10-13T10:48:43.848Z,23.88
2023-10-13T10:51:46.922Z,23.92
2023-10-13T10:55:00.530Z,24.04
2023-10-13T10:58:07.815Z,24.46
2023-10-13T11:01:21.963Z,24.43
2023-10-13T11:04:26.408Z,24.26
2023-10-13T11:07:31.063Z,24.55
2023-10-13T11:10:39.942Z,24.72
2023-10-13T11:13:55.478Z,25.05
2023-10-13T11:17:06.612Z,25.29
2023-10-13T11:20:18.095Z,25.18
2023-10-13T11:23:24.624Z,25.15
2023-10-13T11:26:53.569Z,25.24
2023-10-13T11:30:06.486Z,25.42
2023-10-13T11:33:11.081Z,25.48
2023-10-13T11:36:19.086Z,25.36
2023-10-13T11:39:31.552Z,25.76
2023-10-13T11:42:37.334Z,25.73
2023-10-13T11:45:53.842Z,25.99
2023-10-13T11:48:56.673Z,26.00
2023-10-13T11:52:11.449Z,25.88
2023-10-13T11:55:14.739Z,25.99
2023-10-13T11:58:18.562Z,26.03
2023-10-13T12:01:21.976Z,26.16
2023-10-13T12:04:34.162Z,26.29
2023-10-13T12:07:53.025Z,26.31
2023-10-13T12:11:22.146Z,26.27
2023-10-13T12:14:53.486Z,26.12
2023-10-13T12:17:59.602Z,25.88
2023-10-13T12:21:09.827Z,25.99
2023-10-13T12:24:23.482Z,25.64
2023-10-13T12:27:35.715Z,25.75
2023-10-13T12:30:51.777Z,25.70
2023-10-13T12:33:54.800Z,25.64
2023-10-13T12:37:07.160Z,25.72
2023-10-13T12:40:30.433Z,25.76
2023-10-13T12:43:52.501Z,25.95
2023-10-13T12:47:14.061Z,26.01
2023-10-13T12:50:35.736Z,26.65
2023-10-13T12:53:38.701Z,27.36
2023-10-13T12:56:44.810Z,27.83
2023-10-13T12:59:47.849Z,27.66
2023-10-13T13:02:53.802Z,27.01
2023-10-13T13:05:58.430Z,27.02
2023-10-13T13:09:01.646Z,26.87
2023-10-13T13:12:07.181Z,26.91
2023-10-13T13:15:11.036Z,27.19
2023-10-13T13:18:13.834Z,27.27
2023-10-13T13:21:22.879Z,27.47
2023-10-13T13:24:25.872Z,27.23
2023-10-13T13:27:28.873Z,27.16
2023-10-13T13:30:35.515Z,27.19
2023-10-13T13:33:39.986Z,26.91
2023-10-13T13:36:45.656Z,26.76
2023-10-13T13:39:48.628Z,26.84
2023-10-13T13:42:51.480Z,26.82
2023-10-13T13:45:58.597Z,26.60
2023-10-13T13:49:08.066Z,26.59
2023-10-13T13:52:11.095Z,26.51
2023-10-13T13:55:18.549Z,26.44
2023-10-13T13:58:21.552Z,26.31
2023-10-13T14:01:26.962Z,26.14
2023-10-13T14:04:32.824Z,26.05
2023-10-13T14:07:37.278Z,25.93
2023-10-13T14:11:14.394Z,25.80
2023-10-13T14:14:26.260Z,25.67
2023-10-13T14:17:36.817Z,25.57
2023-10-13T14:20:40.973Z,25.38
2023-10-13T14:23:50.248Z,25.22
2023-10-13T14:26:53.122Z,25.26
2023-10-13T14:29:57.438Z,25.22
2023-10-13T14:33:00.761Z,25.18
2023-10-13T14:36:05.889Z,25.18
2023-10-13T14:39:11.614Z,25.00
2023-10-13T14:42:18.168Z,24.85
2023-10-13T14:45:21.192Z,24.78
2023-10-13T14:48:26.368Z,24.62
2023-10-13T14:51:30.087Z,24.37
2023-10-13T14:54:36.241Z,24.26
2023-10-13T14:57:39.150Z,24.20
2023-10-13T15:00:46.456Z,24.08
2023-10-13T15:03:56.439Z,23.90
2023-10-13T15:07:03.798Z,23.80
2023-10-13T15:10:07.037Z,23.60
2023-10-13T15:13:10.535Z,23.45
2023-10-13T15:16:22.484Z,23.26
2023-10-13T15:19:25.477Z,23.04
2023-10-13T15:22:29.179Z,22.84
2023-10-13T15:25:42.830Z,22.66
2023-10-13T15:28:54.686Z,22.46
2023-10-13T15:32:00.969Z,22.26
2023-10-13T15:35:05.558Z,22.06
2023-10-13T15:38:08.732Z,21.89
2023-10-13T15:41:12.460Z,21.71
2023-10-13T15:44:16.681Z,21.55
2023-10-13T15:50:25.643Z,21.21
2023-10-13T15:53:28.462Z,21.02
